createdAt,value
2018-03-21T00:02:04.733Z,1.63
2018-03-21T00:04:33.866Z,1.68
2018-03-21T00:07:03.011Z,1.61
2018-03-21T00:09:32.224Z,1.72
2018-03-21T00:12:01.639Z,1.71
2018-03-21T00:14:31.509Z,1.69
2018-03-21T00:17:00.694Z,1.62
2018-03-21T00:19:29.845Z,1.69
2018-03-21T00:21:58.971Z,1.73
2018-03-21T00:24:28.224Z,1.73
2018-03-21T00:26:57.405Z,1.89
2018-03-21T00:29:26.608Z,1.80
2018-03-21T00:31:55.877Z,1.84
2018-03-21T00:34:25.106Z,1.84
2018-03-21T00:36:54.300Z,1.68
2018-03-21T00:39:23.664Z,1.69
2018-03-21T00:41:52.869Z,1.70
2018-03-21T00:44:22.064Z,1.70
2018-03-21T00:46:51.418Z,1.76
2018-03-21T00:49:20.623Z,1.75
2018-03-21T00:51:49.821Z,1.69
2018-03-21T00:54:19.087Z,1.72
2018-03-21T00:56:48.305Z,1.69
2018-03-21T00:59:24.022Z,1.66
2018-03-21T01:01:53.227Z,1.64
2018-03-21T01:04:22.508Z,1.57
2018-03-21T01:06:51.717Z,1.49
2018-03-21T01:09:21.002Z,1.41
2018-03-21T01:11:50.261Z,1.33
2018-03-21T01:14:19.464Z,1.25
2018-03-21T01:16:48.683Z,1.16
2018-03-21T01:19:17.947Z,1.06
2018-03-21T01:21:47.491Z,1.00
2018-03-21T01:24:16.775Z,1.14
2018-03-21T01:26:46.080Z,1.13
2018-03-21T01:29:15.274Z,1.15
2018-03-21T01:31:44.547Z,1.22
2018-03-21T01:34:13.897Z,0.98
2018-03-21T01:36:42.988Z,0.77
2018-03-21T01:39:12.180Z,0.77
2018-03-21T01:41:41.465Z,0.84
2018-03-21T01:44:10.662Z,0.87
2018-03-21T01:46:39.900Z,0.89
2018-03-21T01:49:09.363Z,0.76
2018-03-21T01:51:38.528Z,0.54
2018-03-21T01:54:07.736Z,0.59
2018-03-21T01:56:37.011Z,0.40
2018-03-21T01:59:06.236Z,0.30
2018-03-21T02:01:36.054Z,0.31
2018-03-21T02:04:05.492Z,0.46
2018-03-21T02:06:34.690Z,0.27
2018-03-21T02:09:03.496Z,0.31
2018-03-21T02:11:32.772Z,0.14
2018-03-21T02:14:01.981Z,0.17
2018-03-21T02:16:31.182Z,0.10
2018-03-21T02:19:00.660Z,-0.10
2018-03-21T02:21:29.863Z,-0.02
2018-03-21T02:23:59.045Z,-0.20
2018-03-21T02:26:28.314Z,-0.09
2018-03-21T02:28:57.499Z,-0.14
2018-03-21T02:31:26.274Z,-0.10
2018-03-21T02:33:55.570Z,-0.20
2018-03-21T02:36:24.782Z,-0.14
2018-03-21T02:38:54.542Z,-0.10
2018-03-21T02:41:23.851Z,-0.32
2018-03-21T02:43:53.067Z,-0.37
2018-03-21T02:46:22.562Z,-0.27
2018-03-21T02:48:51.820Z,-0.26
2018-03-21T02:51:20.984Z,-0.27
2018-03-21T02:53:50.187Z,-0.34
2018-03-21T02:56:20.230Z,-0.37
2018-03-21T02:58:49.410Z,-0.45
2018-03-21T03:01:18.614Z,-0.39
2018-03-21T03:03:48.725Z,-0.38
2018-03-21T03:06:17.828Z,-0.35
2018-03-21T03:08:47.023Z,-0.41
2018-03-21T03:11:16.280Z,-0.35
2018-03-21T03:13:45.506Z,-0.40
2018-03-21T03:16:14.816Z,-0.46
2018-03-21T03:18:44.052Z,-0.45
2018-03-21T03:21:13.264Z,-0.46
2018-03-21T03:23:42.472Z,-0.47
2018-03-21T03:26:11.785Z,-0.37
2018-03-21T03:28:40.974Z,-0.31
2018-03-21T03:31:10.174Z,-0.41
2018-03-21T03:33:39.452Z,-0.49
2018-03-21T03:36:08.674Z,-0.40
2018-03-21T03:38:37.878Z,-0.35
2018-03-21T03:41:07.154Z,-0.29
2018-03-21T03:43:36.356Z,-0.25
2018-03-21T03:46:05.565Z,-0.22
2018-03-21T03:48:35.059Z,-0.17
2018-03-21T03:51:04.263Z,-0.20
2018-03-21T03:53:33.473Z,-0.20
2018-03-21T03:56:02.761Z,-0.17
2018-03-21T03:58:31.955Z,-0.11
2018-03-21T04:01:01.160Z,-0.08
2018-03-21T04:03:31.006Z,-0.06
2018-03-21T04:06:00.407Z,-0.03
2018-03-21T04:08:29.601Z,-0.01
2018-03-21T04:10:59.825Z,-0.05
2018-03-21T04:13:29.029Z,-0.04
2018-03-21T04:15:58.220Z,0.01
2018-03-21T04:18:28.186Z,0.05
2018-03-21T04:20:57.287Z,-0.01
2018-03-21T04:23:26.490Z,-0.02
2018-03-21T04:25:55.761Z,0.01
2018-03-21T04:28:24.960Z,-0.01
2018-03-21T04:30:54.144Z,0.06
2018-03-21T04:33:23.448Z,0.07
2018-03-21T04:35:52.649Z,0.07
2018-03-21T04:38:22.797Z,0.03
2018-03-21T04:40:52.815Z,0.03
2018-03-21T04:43:21.999Z,0.05
2018-03-21T04:45:51.089Z,0.05
2018-03-21T04:48:21.050Z,0.04
2018-03-21T04:50:51.255Z,0.01
2018-03-21T04:53:20.585Z,0.00
2018-03-21T04:55:49.756Z,0.08
2018-03-21T04:58:18.585Z,0.10
2018-03-21T05:00:47.851Z,0.09
2018-03-21T05:03:17.290Z,0.10
2018-03-21T05:05:46.480Z,0.10
2018-03-21T05:08:16.487Z,0.12
2018-03-21T05:10:45.727Z,0.03
2018-03-21T05:13:14.924Z,0.09
2018-03-21T05:15:44.234Z,0.11
2018-03-21T05:18:13.415Z,0.14
2018-03-21T05:20:42.624Z,0.14
2018-03-21T05:23:11.946Z,0.14
2018-03-21T05:25:42.924Z,0.16
2018-03-21T05:28:12.628Z,0.19
2018-03-21T05:30:41.854Z,0.19
2018-03-21T05:33:11.031Z,0.23
2018-03-21T05:35:40.284Z,0.25
2018-03-21T05:38:09.481Z,0.26
2018-03-21T05:40:38.815Z,0.15
2018-03-21T05:43:08.582Z,0.17
2018-03-21T05:45:37.776Z,0.13
2018-03-21T05:48:07.816Z,-0.09
2018-03-21T05:50:37.129Z,-0.19
2018-03-21T05:53:06.320Z,-0.21
2018-03-21T05:55:35.647Z,-0.14
2018-03-21T05:58:04.934Z,-0.19
2018-03-21T06:00:34.144Z,-0.22
2018-03-21T06:03:03.374Z,-0.36
2018-03-21T06:05:32.673Z,-0.38
2018-03-21T06:08:01.930Z,-0.34
2018-03-21T06:10:31.133Z,-0.31
2018-03-21T06:13:00.392Z,-0.27
2018-03-21T06:15:29.578Z,-0.23
2018-03-21T06:17:58.800Z,-0.17
2018-03-21T06:20:28.087Z,-0.15
2018-03-21T06:22:57.303Z,-0.15
2018-03-21T06:25:26.541Z,-0.08
2018-03-21T06:27:55.791Z,-0.09
2018-03-21T06:30:25.013Z,0.08
2018-03-21T06:32:54.234Z,-0.02
2018-03-21T06:35:23.526Z,-0.01
2018-03-21T06:37:54.976Z,-0.03
2018-03-21T06:40:24.376Z,-0.01
2018-03-21T06:42:53.660Z,0.18
2018-03-21T06:45:22.865Z,0.10
2018-03-21T06:47:52.121Z,0.19
2018-03-21T06:50:21.306Z,0.24
2018-03-21T06:52:50.498Z,0.33
2018-03-21T06:55:19.816Z,0.42
2018-03-21T06:57:49.000Z,0.46
2018-03-21T07:00:18.231Z,0.65
2018-03-21T07:02:48.433Z,0.68
2018-03-21T07:05:18.450Z,0.79
2018-03-21T07:07:47.642Z,0.71
2018-03-21T07:10:16.918Z,0.70
2018-03-21T07:12:46.110Z,0.80
2018-03-21T07:15:26.324Z,0.90
2018-03-21T07:17:55.523Z,1.10
2018-03-21T07:20:24.731Z,1.20
2018-03-21T07:22:54.004Z,1.04
2018-03-21T07:25:23.224Z,1.13
2018-03-21T07:27:52.421Z,1.04
2018-03-21T07:30:22.371Z,1.09
2018-03-21T07:32:51.591Z,1.38
2018-03-21T07:35:20.788Z,1.38
2018-03-21T07:37:50.740Z,1.53
2018-03-21T07:40:20.358Z,1.76
2018-03-21T07:42:49.623Z,2.10
2018-03-21T07:45:18.939Z,1.95
2018-03-21T07:47:48.148Z,1.79
2018-03-21T07:50:17.438Z,1.75
2018-03-21T07:52:46.635Z,1.77
2018-03-21T07:55:15.837Z,2.05
2018-03-21T07:57:45.174Z,2.01
2018-03-21T08:00:14.386Z,2.29
2018-03-21T08:02:43.598Z,2.61
2018-03-21T08:05:12.865Z,2.88
2018-03-21T08:07:42.069Z,3.01
2018-03-21T08:10:11.280Z,3.16
2018-03-21T08:12:40.530Z,2.79
2018-03-21T08:15:09.736Z,2.87
2018-03-21T08:17:38.952Z,3.04
2018-03-21T08:20:08.248Z,2.66
2018-03-21T08:22:37.479Z,3.03
2018-03-21T08:25:06.694Z,3.06
2018-03-21T08:27:36.296Z,3.33
2018-03-21T08:30:05.676Z,3.68
2018-03-21T08:32:34.925Z,3.80
2018-03-21T08:35:04.218Z,3.74
2018-03-21T08:37:33.424Z,3.64
2018-03-21T08:40:02.637Z,3.71
2018-03-21T08:42:31.887Z,3.88
2018-03-21T08:45:01.103Z,3.93
2018-03-21T08:47:30.398Z,3.97
2018-03-21T08:49:59.660Z,3.83
2018-03-21T08:52:28.840Z,4.27
2018-03-21T08:54:58.071Z,4.23
2018-03-21T08:57:27.500Z,3.70
2018-03-21T08:59:56.724Z,3.80
2018-03-21T09:02:25.958Z,3.59
2018-03-21T09:04:55.297Z,3.52
2018-03-21T09:07:25.249Z,3.59
2018-03-21T09:09:54.618Z,3.92
2018-03-21T09:12:23.898Z,3.84
2018-03-21T09:14:53.091Z,3.83
2018-03-21T09:17:22.307Z,4.41
2018-03-21T09:19:51.628Z,4.48
2018-03-21T09:22:20.840Z,3.99
2018-03-21T09:24:50.029Z,4.11
2018-03-21T09:27:19.291Z,4.49
2018-03-21T09:29:48.510Z,4.66
2018-03-21T09:32:17.772Z,4.26
2018-03-21T09:34:47.029Z,4.44
2018-03-21T09:37:16.240Z,4.61
2018-03-21T09:39:45.449Z,4.70
2018-03-21T09:42:14.767Z,4.73
2018-03-21T09:44:43.959Z,4.50
2018-03-21T09:47:13.183Z,4.55
2018-03-21T09:49:42.491Z,4.36
2018-03-21T09:52:11.873Z,4.23
2018-03-21T09:54:44.682Z,4.72
2018-03-21T09:57:13.978Z,5.03
2018-03-21T09:59:43.066Z,5.09
2018-03-21T10:02:12.339Z,5.38
2018-03-21T10:04:41.567Z,5.40
2018-03-21T10:07:10.761Z,5.61
2018-03-21T10:09:40.049Z,5.74
2018-03-21T10:12:09.242Z,6.10
2018-03-21T10:14:38.440Z,5.90
2018-03-21T10:17:07.687Z,5.94
2018-03-21T10:19:36.891Z,5.75
2018-03-21T10:22:06.097Z,5.65
2018-03-21T10:24:35.359Z,5.91
2018-03-21T10:27:04.552Z,5.86
2018-03-21T10:29:33.747Z,6.08
2018-03-21T10:32:02.998Z,5.45
2018-03-21T10:34:32.274Z,5.51
2018-03-21T10:37:01.651Z,5.87
2018-03-21T10:39:30.920Z,6.08
2018-03-21T10:42:00.092Z,6.28
2018-03-21T10:44:29.186Z,5.66
2018-03-21T10:46:58.443Z,5.45
2018-03-21T10:49:28.489Z,5.89
2018-03-21T10:51:57.792Z,6.40
2018-03-21T10:54:27.036Z,6.07
2018-03-21T10:56:56.221Z,6.46
2018-03-21T10:59:25.405Z,6.82
2018-03-21T11:02:00.008Z,6.48
2018-03-21T11:04:29.230Z,6.11
2018-03-21T11:06:58.406Z,6.81
2018-03-21T11:09:27.734Z,6.77
2018-03-21T11:11:57.005Z,7.13
2018-03-21T11:14:26.369Z,7.62
2018-03-21T11:16:55.652Z,7.19
2018-03-21T11:19:24.842Z,7.30
2018-03-21T11:21:54.097Z,7.10
2018-03-21T11:24:23.347Z,7.63
2018-03-21T11:26:52.579Z,7.53
2018-03-21T11:29:21.807Z,7.52
2018-03-21T11:31:51.070Z,7.00
2018-03-21T11:34:20.303Z,7.68
2018-03-21T11:36:49.512Z,7.71
2018-03-21T11:39:18.788Z,7.28
2018-03-21T11:41:47.970Z,8.02
2018-03-21T11:44:17.180Z,8.05
2018-03-21T11:46:46.468Z,7.86
2018-03-21T11:49:15.983Z,7.76
2018-03-21T11:51:45.180Z,7.21
2018-03-21T11:54:14.525Z,7.60
2018-03-21T11:56:43.729Z,7.44
2018-03-21T11:59:12.918Z,7.98
2018-03-21T12:01:42.160Z,7.80
2018-03-21T12:04:11.394Z,7.37
2018-03-21T12:06:40.580Z,8.07
2018-03-21T12:09:09.583Z,7.68
2018-03-21T12:11:39.114Z,8.11
2018-03-21T12:14:08.315Z,7.88
2018-03-21T12:16:43.085Z,7.77
2018-03-21T12:19:12.275Z,7.81
2018-03-21T12:21:41.536Z,7.74
2018-03-21T12:24:10.730Z,7.87
2018-03-21T12:26:39.920Z,7.84
2018-03-21T12:29:09.279Z,7.84
2018-03-21T12:31:38.466Z,8.09
2018-03-21T12:34:07.688Z,8.36
2018-03-21T12:36:36.927Z,8.59
2018-03-21T12:39:05.580Z,7.83
2018-03-21T12:41:34.770Z,8.42
2018-03-21T12:44:04.030Z,8.71
2018-03-21T12:46:32.951Z,8.22
2018-03-21T12:49:02.204Z,8.66
2018-03-21T12:51:31.457Z,8.84
2018-03-21T12:54:00.661Z,7.83
2018-03-21T12:56:29.963Z,7.99
2018-03-21T12:58:59.231Z,8.05
2018-03-21T13:01:29.106Z,8.92
2018-03-21T13:03:58.219Z,9.28
2018-03-21T13:06:27.465Z,9.74
2018-03-21T13:08:57.286Z,8.88
2018-03-21T13:11:26.697Z,8.43
2018-03-21T13:13:55.948Z,7.84
2018-03-21T13:16:25.158Z,8.14
2018-03-21T13:18:54.739Z,7.34
2018-03-21T13:21:24.083Z,7.20
2018-03-21T13:23:53.307Z,7.73
2018-03-21T13:26:22.512Z,8.21
2018-03-21T13:28:51.792Z,8.08
2018-03-21T13:31:20.978Z,8.79
2018-03-21T13:33:50.213Z,8.87
2018-03-21T13:36:19.482Z,7.83
2018-03-21T13:38:48.710Z,6.89
2018-03-21T13:41:18.031Z,7.55
2018-03-21T13:43:47.914Z,8.16
2018-03-21T13:46:17.102Z,8.46
2018-03-21T13:48:47.811Z,8.37
2018-03-21T13:51:17.265Z,8.56
2018-03-21T13:53:46.443Z,8.25
2018-03-21T13:56:15.626Z,8.10
2018-03-21T13:58:44.988Z,7.91
2018-03-21T14:01:14.210Z,8.13
2018-03-21T14:03:43.427Z,8.26
2018-03-21T14:06:13.073Z,8.13
2018-03-21T14:08:42.306Z,8.40
2018-03-21T14:11:11.520Z,8.35
2018-03-21T14:13:40.767Z,7.75
2018-03-21T14:16:09.968Z,6.88
2018-03-21T14:18:39.165Z,6.26
2018-03-21T14:21:08.434Z,7.01
2018-03-21T14:23:37.652Z,8.04
2018-03-21T14:26:06.872Z,8.44
2018-03-21T14:28:36.118Z,8.29
2018-03-21T14:31:05.352Z,8.31
2018-03-21T14:33:34.538Z,8.28
2018-03-21T14:36:03.890Z,8.23
2018-03-21T14:38:33.089Z,7.92
2018-03-21T14:41:02.264Z,6.68
2018-03-21T14:43:32.367Z,6.79
2018-03-21T14:46:01.552Z,6.97
2018-03-21T14:48:30.761Z,7.00
2018-03-21T14:51:00.028Z,7.10
2018-03-21T14:53:29.240Z,7.33
2018-03-21T14:55:58.430Z,7.05
2018-03-21T14:58:28.061Z,6.69
2018-03-21T15:00:57.344Z,6.82
2018-03-21T15:03:26.549Z,7.19
2018-03-21T15:05:55.805Z,7.50
2018-03-21T15:08:24.977Z,7.56
2018-03-21T15:10:54.401Z,7.48
2018-03-21T15:13:23.685Z,7.24
2018-03-21T15:15:53.477Z,7.22
2018-03-21T15:18:22.696Z,7.15
2018-03-21T15:20:52.016Z,6.51
2018-03-21T15:23:21.239Z,6.89
2018-03-21T15:25:50.444Z,7.00
2018-03-21T15:28:19.713Z,7.27
2018-03-21T15:30:48.889Z,7.55
2018-03-21T15:33:18.081Z,7.28
2018-03-21T15:35:47.442Z,7.30
2018-03-21T15:38:16.643Z,7.45
2018-03-21T15:40:45.866Z,7.47
2018-03-21T15:43:15.128Z,7.63
2018-03-21T15:45:44.320Z,7.65
2018-03-21T15:48:13.522Z,7.56
2018-03-21T15:50:42.800Z,7.28
2018-03-21T15:53:12.023Z,7.32
2018-03-21T15:55:41.240Z,7.54
2018-03-21T15:58:10.492Z,7.66
2018-03-21T16:00:39.705Z,7.79
2018-03-21T16:03:09.015Z,7.87
2018-03-21T16:05:38.279Z,7.69
2018-03-21T16:08:07.528Z,7.92
2018-03-21T16:10:36.730Z,7.91
2018-03-21T16:13:06.020Z,7.44
2018-03-21T16:15:35.275Z,7.43
2018-03-21T16:18:04.538Z,7.34
2018-03-21T16:20:33.867Z,7.08
2018-03-21T16:23:03.077Z,7.07
2018-03-21T16:25:32.313Z,6.98
2018-03-21T16:28:01.589Z,7.00
2018-03-21T16:30:30.820Z,6.64
2018-03-21T16:33:00.057Z,6.73
2018-03-21T16:35:29.372Z,6.73
2018-03-21T16:37:58.584Z,6.74
2018-03-21T16:40:27.814Z,6.65
2018-03-21T16:42:56.967Z,6.43
2018-03-21T16:45:26.188Z,6.50
2018-03-21T16:47:55.405Z,6.50
2018-03-21T16:50:24.674Z,6.51
2018-03-21T16:52:53.878Z,6.49
2018-03-21T16:55:23.119Z,6.46
2018-03-21T16:57:52.388Z,6.42
2018-03-21T17:00:21.639Z,6.37
2018-03-21T17:02:50.919Z,6.31
2018-03-21T17:05:20.334Z,6.32
2018-03-21T17:07:49.604Z,6.98
2018-03-21T17:10:18.927Z,8.05
2018-03-21T17:12:48.369Z,8.89
2018-03-21T17:15:17.613Z,8.61
2018-03-21T17:17:46.983Z,7.98
2018-03-21T17:20:16.080Z,7.58
2018-03-21T17:22:45.246Z,7.22
2018-03-21T17:25:14.232Z,6.96
2018-03-21T17:27:43.224Z,6.74
2018-03-21T17:30:12.175Z,6.51
2018-03-21T17:32:41.152Z,6.38
2018-03-21T17:35:10.220Z,6.24
2018-03-21T17:37:39.165Z,6.15
2018-03-21T17:40:08.321Z,6.06
2018-03-21T17:42:37.292Z,6.46
2018-03-21T17:45:06.351Z,7.58
2018-03-21T17:47:35.460Z,8.62
2018-03-21T17:50:04.476Z,8.98
2018-03-21T17:52:33.372Z,8.33
2018-03-21T17:55:02.379Z,7.63
2018-03-21T17:57:31.324Z,7.10
2018-03-21T18:00:00.278Z,6.72
2018-03-21T18:02:29.337Z,6.48
2018-03-21T18:04:58.337Z,6.24
2018-03-21T18:07:27.310Z,6.04
2018-03-21T18:09:56.334Z,5.85
2018-03-21T18:12:25.384Z,5.68
2018-03-21T18:14:54.359Z,5.57
2018-03-21T18:17:23.374Z,5.48
2018-03-21T18:19:52.336Z,5.38
2018-03-21T18:22:21.666Z,5.27
2018-03-21T18:24:51.104Z,5.18
2018-03-21T18:27:20.189Z,5.08
2018-03-21T18:29:49.264Z,4.99
2018-03-21T18:32:18.546Z,4.91
2018-03-21T18:34:47.640Z,4.82
2018-03-21T18:37:16.554Z,4.74
2018-03-21T18:39:45.625Z,4.65
2018-03-21T18:42:14.911Z,4.58
2018-03-21T18:44:43.908Z,4.51
2018-03-21T18:47:13.534Z,4.42
2018-03-21T18:49:42.779Z,4.89
2018-03-21T18:52:11.996Z,6.15
2018-03-21T18:54:41.312Z,6.85
2018-03-21T18:57:10.648Z,6.47
2018-03-21T18:59:39.948Z,5.93
2018-03-21T19:02:09.288Z,5.52
2018-03-21T19:04:38.632Z,5.15
2018-03-21T19:07:07.913Z,4.93
2018-03-21T19:09:37.664Z,4.69
2018-03-21T19:12:08.387Z,4.51
2018-03-21T19:14:39.352Z,4.31
2018-03-21T19:17:10.340Z,4.22
2018-03-21T19:19:42.472Z,4.08
2018-03-21T19:22:12.940Z,3.98
2018-03-21T19:24:43.468Z,3.86
2018-03-21T19:27:15.847Z,3.79
2018-03-21T19:29:45.748Z,3.70
2018-03-21T19:32:16.442Z,3.63
2018-03-21T19:34:47.508Z,3.56
2018-03-21T19:37:18.682Z,3.53
2018-03-21T19:39:49.334Z,3.47
2018-03-21T19:42:20.372Z,3.37
2018-03-21T19:44:51.375Z,3.28
2018-03-21T19:47:22.673Z,3.19
2018-03-21T19:49:53.372Z,3.16
2018-03-21T19:52:24.267Z,3.08
2018-03-21T19:54:55.064Z,3.08
2018-03-21T19:57:25.800Z,3.08
2018-03-21T19:59:56.467Z,3.05
2018-03-21T20:02:27.383Z,3.03
2018-03-21T20:04:58.431Z,2.99
2018-03-21T20:07:29.352Z,2.96
2018-03-21T20:10:00.007Z,2.88
2018-03-21T20:12:30.609Z,2.86
2018-03-21T20:15:01.462Z,2.82
2018-03-21T20:17:31.921Z,2.80
2018-03-21T20:20:02.527Z,2.77
2018-03-21T20:22:33.250Z,2.71
2018-03-21T20:25:04.355Z,2.70
2018-03-21T20:27:35.360Z,2.69
2018-03-21T20:30:06.513Z,2.65
2018-03-21T20:32:36.647Z,2.64
2018-03-21T20:35:07.480Z,2.62
2018-03-21T20:37:38.382Z,2.60
2018-03-21T20:40:09.450Z,2.62
2018-03-21T20:42:40.312Z,2.55
2018-03-21T20:45:11.513Z,2.52
2018-03-21T20:47:42.522Z,2.48
2018-03-21T20:50:14.081Z,2.43
2018-03-21T20:52:44.896Z,2.37
2018-03-21T20:55:15.455Z,2.32
2018-03-21T20:57:46.246Z,2.24
2018-03-21T21:00:16.940Z,2.22
2018-03-21T21:02:47.622Z,2.18
2018-03-21T21:05:18.441Z,2.16
2018-03-21T21:07:49.368Z,2.14
2018-03-21T21:10:21.010Z,2.11
2018-03-21T21:12:51.861Z,2.08
2018-03-21T21:15:22.783Z,2.05
2018-03-21T21:17:53.338Z,2.02
2018-03-21T21:20:24.884Z,2.01
2018-03-21T21:22:55.381Z,2.01
2018-03-21T21:25:26.252Z,1.97
2018-03-21T21:27:56.866Z,1.89
2018-03-21T21:30:28.775Z,1.86
2018-03-21T21:32:58.893Z,1.82
2018-03-21T21:35:29.657Z,1.82
2018-03-21T21:38:00.413Z,1.77
2018-03-21T21:40:30.949Z,1.78
2018-03-21T21:43:01.368Z,1.76
2018-03-21T21:45:32.432Z,1.67
2018-03-21T21:48:02.813Z,1.66
2018-03-21T21:50:33.690Z,1.62
2018-03-21T21:53:04.345Z,1.63
2018-03-21T21:55:35.328Z,1.59
2018-03-21T21:58:06.371Z,1.60
2018-03-21T22:00:37.236Z,1.58
2018-03-21T22:03:08.176Z,1.60
2018-03-21T22:05:39.201Z,1.61
2018-03-21T22:08:10.154Z,1.61
2018-03-21T22:10:41.223Z,1.58
2018-03-21T22:13:12.197Z,1.57
2018-03-21T22:15:43.211Z,1.58
2018-03-21T22:18:14.155Z,1.53
2018-03-21T22:20:45.156Z,1.52
2018-03-21T22:23:16.185Z,1.44
2018-03-21T22:25:47.195Z,1.42
2018-03-21T22:28:18.111Z,1.40
2018-03-21T22:30:49.144Z,1.36
2018-03-21T22:33:20.305Z,1.36
2018-03-21T22:35:51.372Z,1.33
2018-03-21T22:38:22.744Z,1.29
2018-03-21T22:40:52.477Z,1.32
2018-03-21T22:43:23.288Z,1.24
2018-03-21T22:45:55.527Z,1.18
2018-03-21T22:48:25.591Z,1.20
2018-03-21T22:50:56.351Z,1.18
2018-03-21T22:53:27.324Z,1.14
2018-03-21T22:55:58.343Z,1.12
2018-03-21T22:58:29.306Z,1.12
2018-03-21T23:01:00.307Z,1.11
2018-03-21T23:03:31.317Z,1.10
2018-03-21T23:06:02.358Z,1.07
2018-03-21T23:08:32.913Z,1.06
2018-03-21T23:11:03.883Z,1.02
2018-03-21T23:13:34.462Z,1.03
2018-03-21T23:16:05.403Z,1.02
2018-03-21T23:18:36.251Z,0.95
2018-03-21T23:21:06.900Z,0.89
2018-03-21T23:23:38.518Z,0.89
2018-03-21T23:26:09.284Z,0.86
2018-03-21T23:28:40.244Z,0.85
2018-03-21T23:31:11.780Z,0.86
2018-03-21T23:33:42.300Z,0.84
2018-03-21T23:36:13.343Z,0.86
2018-03-21T23:38:44.216Z,0.85
2018-03-21T23:41:15.223Z,0.84
2018-03-21T23:43:46.175Z,0.85
2018-03-21T23:46:17.310Z,0.86
2018-03-21T23:48:48.207Z,0.84
2018-03-21T23:51:19.242Z,0.83
2018-03-21T23:53:50.188Z,0.83
2018-03-21T23:56:21.603Z,0.85
2018-03-21T23:58:51.889Z,0.86
